Time;durP1;ratioP1;P1;durP2;ratioP2;P2;SDS_P1;SDS_P2;PMS_P1;PMS_P2;Temp;Humidity;BMP_temperature;BMP_pressure;BME280_temperature;BME280_humidity;BME280_pressure;Samples;Min_cycle;Max_cycle;Signal;HPM_P1;HPM_P2
2022/07/20 00:00:57;;;;;;;4.57;3.25;;;22.60;99.90;;;;;;13088920;22;20238;-88
2022/07/20 00:06:00;;;;;;;3.88;3.45;;;22.50;99.90;;;;;;13116401;22;20600;-88
2022/07/20 00:11:21;;;;;;;5.25;3.67;;;22.50;99.90;;;;;;13088677;22;20195;-89
2022/07/20 00:16:26;;;;;;;3.67;3.28;;;22.50;99.90;;;;;;13086925;22;20237;-89
2022/07/20 00:21:29;;;;;;;4.13;3.28;;;22.50;99.90;;;;;;13062269;22;20200;-89
2022/07/20 00:26:32;;;;;;;4.38;3.85;;;22.50;99.90;;;;;;13088307;22;20165;-88
2022/07/20 00:31:34;;;;;;;3.92;3.33;;;22.50;99.90;;;;;;13115653;22;20186;-88
2022/07/20 00:36:37;;;;;;;4.70;3.60;;;22.50;99.90;;;;;;13119035;22;20191;-88
2022/07/20 00:41:40;;;;;;;3.88;3.08;;;22.40;99.90;;;;;;13119228;22;20230;-89
2022/07/20 00:46:44;;;;;;;4.18;3.30;;;22.50;99.90;;;;;;13090859;22;20479;-89
2022/07/20 00:51:48;;;;;;;5.35;4.00;;;22.40;99.90;;;;;;13119220;22;20161;-88
2022/07/20 00:56:50;;;;;;;3.40;3.05;;;22.40;99.90;;;;;;13119187;22;20172;-88
2022/07/20 01:01:53;;;;;;;5.65;3.92;;;22.40;99.90;;;;;;13090635;22;20741;-88
2022/07/20 01:06:56;;;;;;;3.58;3.28;;;22.40;99.90;;;;;;13119069;22;20161;-89
2022/07/20 01:11:58;;;;;;;3.80;3.40;;;22.40;99.90;;;;;;13091391;22;20202;-88
2022/07/20 01:17:01;;;;;;;3.67;3.38;;;22.40;99.90;;;;;;13064942;22;20634;-88
2022/07/20 01:22:04;;;;;;;6.60;4.47;;;22.40;99.90;;;;;;13090645;22;20534;-89
2022/07/20 01:27:06;;;;;;;4.20;3.70;;;22.40;99.90;;;;;;13118453;22;20164;-89
2022/07/20 01:32:09;;;;;;;3.47;3.03;;;22.40;99.90;;;;;;13089945;22;20237;-88
2022/07/20 01:37:11;;;;;;;3.67;3.38;;;22.40;99.90;;;;;;13118266;22;20241;-89
2022/07/20 01:42:14;;;;;;;5.32;3.33;;;22.40;99.90;;;;;;13090908;22;20181;-88
2022/07/20 01:47:16;;;;;;;4.03;3.63;;;22.30;99.90;;;;;;13116456;22;20492;-89
2022/07/20 01:52:19;;;;;;;4.07;3.67;;;22.30;99.90;;;;;;13118315;22;20168;-88
2022/07/20 01:57:22;;;;;;;4.53;3.42;;;22.30;99.90;;;;;;13118430;22;20168;-89
2022/07/20 02:02:24;;;;;;;3.97;3.58;;;22.30;99.90;;;;;;13135798;22;20237;-89
2022/07/20 02:07:27;;;;;;;3.88;3.38;;;22.30;99.90;;;;;;13117995;22;20161;-88
2022/07/20 02:12:30;;;;;;;3.85;3.45;;;22.30;99.90;;;;;;13090330;22;20173;-89
2022/07/20 02:17:32;;;;;;;4.70;3.90;;;22.20;99.90;;;;;;13135691;22;20164;-88
2022/07/20 02:22:35;;;;;;;4.68;4.28;;;22.30;99.90;;;;;;13089086;22;20536;-88
2022/07/20 02:27:37;;;;;;;4.00;3.60;;;22.20;99.90;;;;;;13088542;22;20245;-89
2022/07/20 02:32:40;;;;;;;4.20;3.80;;;22.30;99.90;;;;;;13118110;22;20194;-89
2022/07/20 02:37:43;;;;;;;6.00;3.65;;;22.20;99.90;;;;;;13089243;22;20253;-88
2022/07/20 02:42:45;;;;;;;4.30;3.90;;;22.20;99.90;;;;;;13062377;22;20655;-89
2022/07/20 02:47:48;;;;;;;4.10;3.70;;;22.30;99.90;;;;;;13117185;22;20160;-89
2022/07/20 02:52:50;;;;;;;4.47;3.70;;;22.30;99.90;;;;;;13117941;22;20164;-88
2022/07/20 02:57:53;;;;;;;3.75;3.42;;;22.30;99.90;;;;;;13117552;22;20230;-88
2022/07/20 03:02:56;;;;;;;3.72;3.42;;;22.30;99.90;;;;;;13117302;22;20180;-88
2022/07/20 03:07:59;;;;;;;5.40;3.45;;;22.30;99.90;;;;;;13088083;22;20172;-88
2022/07/20 03:13:01;;;;;;;4.25;3.85;;;22.30;99.90;;;;;;13062879;22;20537;-89
2022/07/20 03:18:04;;;;;;;5.80;3.88;;;22.30;99.90;;;;;;13088286;22;20176;-89
2022/07/20 03:23:06;;;;;;;5.72;3.97;;;22.20;99.90;;;;;;13117093;22;20556;-89
2022/07/20 03:28:09;;;;;;;3.80;3.42;;;22.30;99.90;;;;;;13135280;22;20161;-89
2022/07/20 03:33:11;;;;;;;4.82;3.72;;;22.30;99.90;;;;;;13116404;22;20164;-89
2022/07/20 03:38:14;;;;;;;3.75;3.45;;;22.30;99.90;;;;;;13088792;22;20669;-89
2022/07/20 03:43:16;;;;;;;4.32;3.60;;;22.30;99.90;;;;;;13087723;22;20196;-89
2022/07/20 03:48:19;;;;;;;4.15;3.80;;;22.40;99.90;;;;;;13116430;22;20526;-89
2022/07/20 03:53:22;;;;;;;4.28;3.63;;;22.40;99.90;;;;;;13116105;22;20165;-89
2022/07/20 03:58:25;;;;;;;4.07;3.67;;;22.40;99.90;;;;;;13108300;22;20545;-89
2022/07/20 04:03:27;;;;;;;3.83;3.42;;;22.40;99.90;;;;;;13116135;22;20210;-89
2022/07/20 04:08:30;;;;;;;4.20;3.88;;;22.40;99.90;;;;;;13090507;22;20164;-89
2022/07/20 04:13:32;;;;;;;3.47;3.17;;;22.40;99.90;;;;;;13120302;22;20165;-88
2022/07/20 04:18:35;;;;;;;4.85;4.10;;;22.40;99.90;;;;;;13119970;22;20160;-89
2022/07/20 04:23:38;;;;;;;4.30;3.70;;;22.40;99.90;;;;;;13091761;22;20193;-89
2022/07/20 04:28:40;;;;;;;4.55;3.40;;;22.40;99.90;;;;;;13093135;22;20233;-89
2022/07/20 04:33:43;;;;;;;4.40;4.00;;;22.50;99.90;;;;;;13065358;22;20233;-89
2022/07/20 04:38:45;;;;;;;4.55;4.07;;;22.60;99.90;;;;;;13090834;22;20233;-88
2022/07/20 04:43:49;;;;;;;4.15;3.75;;;22.70;99.90;;;;;;13119231;22;20238;-89
2022/07/20 04:48:51;;;;;;;3.78;3.38;;;22.60;99.90;;;;;;13119506;22;20218;-89
2022/07/20 04:53:54;;;;;;;4.68;4.15;;;22.60;99.90;;;;;;13092273;22;20194;-89
2022/07/20 04:58:57;;;;;;;4.28;3.85;;;22.60;99.90;;;;;;13090834;22;20237;-89
2022/07/20 05:04:00;;;;;;;4.45;3.85;;;22.60;99.90;;;;;;13091037;22;20192;-88
2022/07/20 05:09:03;;;;;;;4.45;3.65;;;22.60;99.90;;;;;;13118915;22;20164;-88
2022/07/20 05:14:08;;;;;;;4.05;3.50;;;22.60;99.90;;;;;;13092024;22;20165;-89
2022/07/20 05:19:11;;;;;;;4.22;3.83;;;22.60;99.90;;;;;;13117996;22;20226;-89
2022/07/20 05:24:15;;;;;;;4.45;3.80;;;22.60;99.90;;;;;;13091460;22;20180;-89
2022/07/20 05:29:18;;;;;;;6.15;4.40;;;22.60;99.90;;;;;;13119054;22;20202;-88
2022/07/20 05:34:20;;;;;;;3.78;3.35;;;22.60;99.90;;;;;;13118632;22;20502;-88
2022/07/20 05:39:23;;;;;;;4.28;3.88;;;22.60;99.90;;;;;;13118422;22;20192;-89
2022/07/20 05:44:25;;;;;;;9.45;4.68;;;22.70;99.90;;;;;;13064723;22;20196;-89
2022/07/20 05:49:28;;;;;;;4.35;3.95;;;22.60;99.90;;;;;;13118513;22;20160;-88
2022/07/20 05:54:31;;;;;;;5.57;4.22;;;22.70;99.90;;;;;;13091074;22;20169;-89
2022/07/20 05:59:33;;;;;;;8.95;6.10;;;22.70;99.90;;;;;;13118131;22;20217;-88
2022/07/20 06:04:37;;;;;;;7.85;4.82;;;22.70;99.90;;;;;;13117838;22;20718;-89
2022/07/20 06:09:40;;;;;;;8.15;5.57;;;22.60;99.90;;;;;;13117551;22;20190;-89
2022/07/20 06:14:43;;;;;;;16.38;7.30;;;22.70;99.90;;;;;;13117677;22;20164;-89
2022/07/20 06:19:45;;;;;;;15.13;5.88;;;22.70;99.90;;;;;;13117931;22;20165;-89
2022/07/20 06:24:48;;;;;;;11.50;5.47;;;22.70;99.90;;;;;;13117398;22;20180;-89
2022/07/20 06:29:59;;;;;;;4.00;3.50;;;22.80;99.90;;;;;;13110153;22;20165;-89
2022/07/20 06:35:03;;;;;;;14.15;6.72;;;22.90;99.90;;;;;;13090054;22;20209;-89
2022/07/20 06:40:06;;;;;;;6.40;3.78;;;23.10;99.90;;;;;;13089662;22;20225;-89
2022/07/20 06:45:09;;;;;;;7.88;6.15;;;23.20;99.90;;;;;;13088681;22;20200;-89
2022/07/20 06:50:11;;;;;;;5.40;4.35;;;23.40;99.90;;;;;;13117358;22;20160;-89
2022/07/20 06:55:14;;;;;;;6.63;4.60;;;23.60;99.90;;;;;;13116902;22;20168;-89
2022/07/20 07:00:17;;;;;;;9.73;5.53;;;23.90;99.90;;;;;;13117059;22;20603;-89
2022/07/20 07:05:19;;;;;;;12.77;6.55;;;24.00;99.90;;;;;;13088359;22;20200;-89
2022/07/20 07:10:22;;;;;;;10.13;5.60;;;24.30;99.90;;;;;;13087843;22;20242;-89
2022/07/20 07:15:24;;;;;;;5.55;4.30;;;24.60;99.90;;;;;;13088781;22;20177;-89
2022/07/20 07:20:28;;;;;;;13.45;5.32;;;24.70;99.90;;;;;;13117078;22;20164;-89
2022/07/20 07:25:31;;;;;;;5.70;5.05;;;24.90;99.90;;;;;;13062875;22;20252;-89
2022/07/20 07:30:33;;;;;;;19.08;6.25;;;25.00;99.90;;;;;;13089318;22;20190;-89
2022/07/20 07:35:36;;;;;;;9.02;5.35;;;25.40;99.90;;;;;;13116673;22;20168;-89
2022/07/20 07:40:39;;;;;;;7.95;5.78;;;25.50;99.90;;;;;;13088685;22;20192;-89
2022/07/20 07:45:41;;;;;;;9.52;5.50;;;25.80;99.90;;;;;;13115810;22;20188;-89
2022/07/20 07:50:44;;;;;;;7.53;4.80;;;26.20;99.90;;;;;;13087517;22;20171;-88
2022/07/20 07:55:47;;;;;;;13.77;5.70;;;26.40;99.90;;;;;;13116159;22;20168;-89
2022/07/20 08:00:50;;;;;;;11.65;5.93;;;26.70;99.90;;;;;;13116092;22;20164;-89
2022/07/20 08:05:53;;;;;;;10.88;6.18;;;27.10;99.90;;;;;;13088121;22;20200;-89
2022/07/20 08:10:55;;;;;;;10.02;5.88;;;27.40;99.90;;;;;;13115773;22;20168;-89
2022/07/20 08:15:58;;;;;;;8.82;5.22;;;27.20;99.90;;;;;;13088506;22;20228;-89
2022/07/20 08:21:01;;;;;;;13.75;6.47;;;27.10;99.90;;;;;;13107883;22;20234;-89
2022/07/20 08:26:03;;;;;;;8.05;5.43;;;27.10;98.70;;;;;;13089366;22;20164;-88
2022/07/20 08:31:06;;;;;;;9.57;4.60;;;27.60;98.50;;;;;;13116147;22;20161;-89
2022/07/20 08:36:08;;;;;;;8.38;5.50;;;28.20;94.00;;;;;;13062097;22;20173;-89
2022/07/20 08:41:11;;;;;;;9.50;5.63;;;28.00;96.60;;;;;;13089764;22;20188;-89
2022/07/20 08:46:14;;;;;;;9.25;5.70;;;28.40;97.10;;;;;;13115824;22;20206;-89
2022/07/20 08:51:17;;;;;;;10.40;5.43;;;28.50;97.80;;;;;;13115477;22;20161;-89
2022/07/20 08:56:19;;;;;;;4.07;3.67;;;28.50;94.70;;;;;;13091191;22;20168;-89
2022/07/20 09:01:22;;;;;;;6.15;4.60;;;28.70;90.40;;;;;;13119141;22;20164;-89
2022/07/20 09:06:29;;;;;;;4.78;3.63;;;28.00;96.20;;;;;;13119530;22;20161;-89
2022/07/20 09:11:33;;;;;;;5.32;4.32;;;28.70;90.80;;;;;;13099253;22;20168;-89
2022/07/20 09:16:43;;;;;;;8.68;5.72;;;27.70;92.10;;;;;;13118664;22;20191;-89
2022/07/20 09:21:46;;;;;;;5.72;3.70;;;29.10;89.80;;;;;;13089645;22;20184;-89
2022/07/20 09:27:03;;;;;;;7.72;4.57;;;28.90;86.20;;;;;;13065018;22;20514;-89
2022/07/20 09:32:06;;;;;;;14.88;4.70;;;28.80;90.70;;;;;;13110707;22;20164;-89
2022/07/20 09:37:16;;;;;;;12.73;5.32;;;30.20;87.40;;;;;;13137729;22;20192;-89
2022/07/20 09:42:35;;;;;;;7.15;4.57;;;29.70;87.20;;;;;;13090528;22;20192;-89
2022/07/20 09:47:38;;;;;;;10.48;4.68;;;29.80;80.80;;;;;;13137624;22;20186;-89
2022/07/20 09:52:40;;;;;;;5.13;4.47;;;29.90;82.00;;;;;;13118430;22;20161;-90
2022/07/20 09:57:44;;;;;;;7.03;4.28;;;30.60;76.30;;;;;;13118334;22;20172;-89
2022/07/20 10:02:50;;;;;;;11.38;4.70;;;30.40;76.00;;;;;;13136561;22;20707;-89
2022/07/20 10:07:53;;;;;;;6.35;4.47;;;30.20;75.00;;;;;;13090091;22;20164;-90
2022/07/20 10:12:58;;;;;;;7.25;4.82;;;30.70;68.00;;;;;;13117731;22;20226;-88
2022/07/20 10:18:01;;;;;;;4.97;4.32;;;;;;;;;;13136383;22;20218;-89
2022/07/20 10:23:16;;;;;;;4.80;4.30;;;31.10;67.80;;;;;;13089116;22;20195;-89
2022/07/20 10:28:27;;;;;;;5.93;4.70;;;30.70;71.50;;;;;;13117390;22;20210;-89
2022/07/20 10:33:32;;;;;;;11.35;5.38;;;29.80;72.70;;;;;;13108461;22;20168;-89
2022/07/20 10:38:34;;;;;;;7.82;4.63;;;30.80;67.20;;;;;;13116819;22;20192;-88
2022/07/20 10:43:37;;;;;;;10.35;5.15;;;31.20;61.80;;;;;;13136571;22;20184;-89
2022/07/20 10:48:46;;;;;;;12.23;5.93;;;30.50;65.50;;;;;;13109084;22;20161;-89
2022/07/20 10:53:49;;;;;;;9.25;6.72;;;30.80;59.60;;;;;;13108310;22;20164;-89
2022/07/20 10:59:00;;;;;;;9.75;5.65;;;31.60;63.70;;;;;;13117559;22;20165;-89
2022/07/20 11:04:02;;;;;;;11.20;5.65;;;31.40;65.00;;;;;;13108880;22;20526;-88
2022/07/20 11:09:05;;;;;;;4.82;4.32;;;30.50;64.00;;;;;;13135581;22;20190;-88
2022/07/20 11:14:10;;;;;;;8.90;5.72;;;29.90;68.20;;;;;;13116605;22;20165;-89
2022/07/20 11:19:13;;;;;;;13.60;5.50;;;30.70;58.60;;;;;;13089354;22;20164;-89
2022/07/20 11:24:23;;;;;;;8.82;5.97;;;31.50;55.20;;;;;;13116381;22;20523;-89
2022/07/20 11:29:27;;;;;;;6.97;5.43;;;;;;;;;;13088140;22;20631;-89
2022/07/20 11:34:29;;;;;;;4.50;4.10;;;31.80;55.90;;;;;;13116947;22;20164;-89
2022/07/20 11:39:32;;;;;;;7.20;5.43;;;30.20;63.10;;;;;;13116486;22;20192;-89
2022/07/20 11:44:34;;;;;;;10.32;6.30;;;29.40;62.90;;;;;;13089076;22;20188;-89
2022/07/20 11:49:37;;;;;;;9.80;6.72;;;30.50;62.00;;;;;;13116371;22;20160;-90
2022/07/20 11:54:40;;;;;;;8.57;5.95;;;31.80;60.00;;;;;;13088877;22;20218;-89
2022/07/20 11:59:44;;;;;;;12.50;7.10;;;32.50;52.00;;;;;;13116440;22;20161;-89
2022/07/20 12:04:48;;;;;;;10.75;6.45;;;32.50;55.50;;;;;;13115919;22;20209;-89
2022/07/20 12:09:50;;;;;;;12.05;6.45;;;32.30;54.40;;;;;;13061754;22;20180;-89
2022/07/20 12:14:52;;;;;;;10.55;6.15;;;32.40;54.20;;;;;;13115991;22;20190;-89
2022/07/20 12:19:59;;;;;;;5.70;5.07;;;32.40;59.80;;;;;;13062030;22;20242;-89
2022/07/20 12:25:09;;;;;;;22.15;6.95;;;32.40;56.50;;;;;;13088442;22;20188;-89
2022/07/20 12:30:41;;;;;;;7.78;5.93;;;32.50;53.20;;;;;;13109445;22;20187;-89
2022/07/20 12:35:48;;;;;;;4.72;3.90;;;32.30;58.30;;;;;;13091875;22;20180;-89
2022/07/20 12:40:51;;;;;;;7.15;6.00;;;31.60;58.30;;;;;;13122708;22;20192;-89
2022/07/20 12:46:05;;;;;;;10.63;6.30;;;32.10;50.60;;;;;;13092164;22;20547;-89
2022/07/20 12:51:10;;;;;;;12.43;7.18;;;32.80;49.80;;;;;;13138567;22;20161;-90
2022/07/20 12:56:13;;;;;;;13.82;6.65;;;33.00;54.10;;;;;;13090828;22;20180;-88
2022/07/20 13:01:17;;;;;;;10.15;6.15;;;32.60;52.60;;;;;;13119134;22;20214;-90
2022/07/20 13:06:20;;;;;;;14.20;6.43;;;33.10;52.30;;;;;;13091604;22;20245;-89
2022/07/20 13:11:22;;;;;;;17.15;7.30;;;33.40;50.10;;;;;;13091155;22;20176;-89
2022/07/20 13:16:25;;;;;;;13.40;6.88;;;33.50;48.30;;;;;;13118869;22;20165;-89
2022/07/20 13:21:28;;;;;;;11.95;6.20;;;33.40;51.00;;;;;;13090016;22;20172;-89
2022/07/20 13:26:30;;;;;;;11.35;6.32;;;31.80;53.30;;;;;;13089975;22;20192;-89
2022/07/20 13:31:33;;;;;;;7.18;5.47;;;32.60;50.70;;;;;;13091832;22;20160;-90
2022/07/20 13:36:52;;;;;;;11.15;6.05;;;31.80;51.60;;;;;;13118599;22;20164;-89
2022/07/20 13:41:54;;;;;;;15.18;6.72;;;33.20;52.00;;;;;;13089612;22;20180;-89
2022/07/20 13:47:00;;;;;;;10.65;6.50;;;32.90;50.00;;;;;;13089878;22;20196;-89
2022/07/20 13:52:03;;;;;;;16.38;7.15;;;31.90;56.30;;;;;;13138669;22;20160;-89
2022/07/20 13:57:23;;;;;;;10.77;5.35;;;32.50;53.80;;;;;;13100212;22;20168;-89
2022/07/20 14:02:26;;;;;;;9.77;5.88;;;33.10;55.30;;;;;;13117864;22;20160;-89
2022/07/20 14:07:29;;;;;;;14.13;5.85;;;32.40;55.50;;;;;;13117867;22;20210;-88
2022/07/20 14:12:31;;;;;;;4.80;4.13;;;32.60;52.50;;;;;;13122646;22;20210;-89
2022/07/20 14:17:39;;;;;;;10.18;6.65;;;30.90;58.70;;;;;;13090607;22;20168;-89
2022/07/20 14:22:42;;;;;;;7.78;5.90;;;31.20;56.90;;;;;;13135780;22;20180;-89
2022/07/20 14:27:44;;;;;;;5.72;5.20;;;32.60;52.60;;;;;;13064541;22;20180;-89
2022/07/20 14:32:47;;;;;;;15.52;7.13;;;31.50;57.50;;;;;;13117496;22;20214;-89
2022/07/20 14:37:49;;;;;;;5.38;4.88;;;31.50;55.90;;;;;;13089281;22;20535;-89
2022/07/20 14:42:52;;;;;;;9.00;6.35;;;30.10;60.10;;;;;;13117307;22;20176;-89
2022/07/20 14:47:54;;;;;;;7.70;5.50;;;32.00;54.00;;;;;;13117517;22;20218;-89
2022/07/20 14:52:57;;;;;;;6.20;4.65;;;32.60;51.30;;;;;;13089979;22;20221;-89
2022/07/20 14:58:08;;;;;;;5.65;4.35;;;32.10;54.60;;;;;;13094321;22;20190;-89
2022/07/20 15:03:11;;;;;;;9.90;5.63;;;31.10;58.10;;;;;;13088980;22;20196;-89
2022/07/20 15:08:13;;;;;;;5.00;4.53;;;31.40;54.90;;;;;;13117014;22;20491;-89
2022/07/20 15:13:16;;;;;;;9.82;6.55;;;32.00;56.30;;;;;;13088827;22;20182;-89
2022/07/20 15:18:19;;;;;;;5.68;4.18;;;31.50;52.20;;;;;;13107886;22;20164;-89
2022/07/20 15:23:22;;;;;;;7.18;4.63;;;31.60;56.80;;;;;;13087456;22;20222;-89
2022/07/20 15:28:25;;;;;;;11.32;6.10;;;31.60;55.10;;;;;;13116814;22;20237;-89
2022/07/20 15:33:27;;;;;;;8.82;6.60;;;31.60;52.70;;;;;;13088007;22;20225;-90
2022/07/20 15:38:31;;;;;;;5.72;5.10;;;31.70;50.60;;;;;;13088832;22;20192;-89
2022/07/20 15:43:36;;;;;;;6.30;4.90;;;31.30;56.90;;;;;;13115993;22;20241;-90
2022/07/20 15:48:38;;;;;;;11.32;5.90;;;31.30;55.90;;;;;;13116430;22;20160;-89
2022/07/20 15:53:41;;;;;;;8.07;5.53;;;31.00;54.00;;;;;;13116362;22;20502;-89
2022/07/20 15:58:45;;;;;;;14.60;6.45;;;30.40;54.70;;;;;;13089025;22;20480;-89
2022/07/20 16:03:47;;;;;;;65.97;8.77;;;30.90;57.10;;;;;;13115370;22;20184;-89
2022/07/20 16:08:50;;;;;;;6.57;5.60;;;30.70;59.90;;;;;;13116184;22;20476;-89
2022/07/20 16:13:53;;;;;;;6.10;5.32;;;30.80;56.00;;;;;;13089567;22;20169;-89
2022/07/20 16:18:56;;;;;;;10.20;5.82;;;30.50;59.50;;;;;;13115973;22;20218;-90
2022/07/20 16:23:59;;;;;;;8.25;6.20;;;29.80;61.20;;;;;;13115520;22;20184;-90
2022/07/20 16:29:02;;;;;;;4.97;4.57;;;29.80;61.00;;;;;;13135357;22;20161;-89
2022/07/20 16:34:05;;;;;;;6.72;4.70;;;29.70;62.80;;;;;;13088396;22;20168;-89
2022/07/20 16:39:09;;;;;;;8.65;5.90;;;29.70;61.60;;;;;;13115355;22;20581;-89
2022/07/20 16:44:11;;;;;;;4.93;4.38;;;30.40;59.20;;;;;;13132923;22;20185;-90
2022/07/20 16:49:14;;;;;;;6.78;5.72;;;30.00;61.70;;;;;;13115998;22;20161;-89
2022/07/20 16:54:25;;;;;;;7.28;5.30;;;30.30;59.60;;;;;;13134386;22;20550;-90
2022/07/20 16:59:28;;;;;;;10.30;5.72;;;30.80;61.50;;;;;;13088407;22;20165;-89
2022/07/20 17:04:31;;;;;;;11.73;5.82;;;30.70;65.60;;;;;;13115205;22;20564;-89
2022/07/20 17:09:33;;;;;;;11.02;6.20;;;30.60;60.70;;;;;;13104995;22;20215;-89
2022/07/20 17:14:36;;;;;;;8.38;5.70;;;30.90;62.30;;;;;;13115830;22;20164;-90
2022/07/20 17:19:38;;;;;;;10.88;5.63;;;30.80;60.40;;;;;;13091951;22;20627;-90
2022/07/20 17:24:41;;;;;;;7.65;5.55;;;30.50;61.00;;;;;;13118954;22;20234;-89
2022/07/20 17:29:47;;;;;;;9.35;6.47;;;30.50;62.40;;;;;;13065666;22;20229;-90
2022/07/20 17:34:49;;;;;;;9.43;5.18;;;30.40;64.00;;;;;;13091519;22;20164;-90
2022/07/20 17:39:52;;;;;;;10.23;5.90;;;30.40;64.70;;;;;;13118685;22;20577;-89
2022/07/20 17:44:54;;;;;;;13.63;6.90;;;30.30;66.70;;;;;;13089110;22;20230;-90
2022/07/20 17:49:57;;;;;;;29.90;10.73;;;30.10;77.80;;;;;;13110241;22;20160;-90
2022/07/20 17:54:59;;;;;;;36.33;19.90;;;30.00;79.90;;;;;;13118466;22;20168;-90
2022/07/20 18:00:11;;;;;;;26.08;17.38;;;29.80;87.10;;;;;;13112732;22;20164;-90
2022/07/20 18:05:14;;;;;;;13.07;6.78;;;29.40;94.10;;;;;;13118895;22;20235;-90
2022/07/20 18:10:16;;;;;;;17.38;6.22;;;29.10;92.70;;;;;;13117771;22;20168;-91
2022/07/20 18:15:19;;;;;;;12.80;5.85;;;28.70;92.60;;;;;;13090588;22;20692;-90
2022/07/20 18:20:23;;;;;;;19.70;7.97;;;28.40;93.90;;;;;;13117710;22;20211;-90
2022/07/20 18:25:27;;;;;;;17.55;9.57;;;28.20;95.20;;;;;;13090153;22;20188;-90
2022/07/20 18:30:32;;;;;;;33.75;10.00;;;27.70;99.90;;;;;;13117363;22;20161;-90
2022/07/20 18:35:34;;;;;;;27.95;8.00;;;27.20;99.90;;;;;;13088647;22;20230;-89
2022/07/20 18:40:41;;;;;;;25.20;7.90;;;26.90;99.90;;;;;;13051150;22;20276;-90
2022/07/20 18:45:57;;;;;;;15.40;8.05;;;;;;;;;;13069137;22;20501;-90
2022/07/20 18:51:08;;;;;;;13.50;5.93;;;26.40;99.90;;;;;;13070969;22;20544;-90
2022/07/20 18:56:11;;;;;;;5.68;5.18;;;26.10;98.60;;;;;;13052627;22;20219;-90
2022/07/20 19:01:13;;;;;;;5.00;4.55;;;25.90;99.90;;;;;;13052270;22;20165;-89
2022/07/20 19:06:16;;;;;;;15.35;6.05;;;25.60;99.90;;;;;;13052091;22;20233;-89
2022/07/20 19:11:20;;;;;;;9.48;5.80;;;25.40;99.90;;;;;;13052097;22;20219;-89
2022/07/20 19:16:22;;;;;;;14.10;5.30;;;25.30;99.90;;;;;;13049867;22;20177;-89
2022/07/20 19:21:25;;;;;;;7.88;6.05;;;25.20;99.90;;;;;;13052164;22;20169;-90
2022/07/20 19:26:27;;;;;;;9.98;5.68;;;25.00;99.90;;;;;;13049855;22;20185;-90
2022/07/20 19:31:34;;;;;;;8.75;5.53;;;24.80;99.90;;;;;;13024039;22;20706;-90
2022/07/20 19:36:39;;;;;;;14.10;6.15;;;24.60;99.90;;;;;;13051705;22;20500;-90
2022/07/20 19:41:41;;;;;;;19.80;6.35;;;24.40;99.90;;;;;;13051669;22;20219;-90
2022/07/20 19:46:44;;;;;;;12.90;6.13;;;24.10;99.90;;;;;;13048844;22;20266;-90
2022/07/20 19:51:46;;;;;;;14.88;6.38;;;23.90;99.90;;;;;;13049949;22;20506;-90
2022/07/20 19:56:50;;;;;;;22.52;6.82;;;23.70;99.90;;;;;;13049554;22;20181;-90
2022/07/20 20:01:54;;;;;;;17.58;6.18;;;23.50;99.90;;;;;;13049037;22;20234;-89
2022/07/20 20:06:57;;;;;;;7.95;5.65;;;23.30;99.90;;;;;;13051104;22;20188;-89
2022/07/20 20:11:59;;;;;;;9.10;6.45;;;23.10;99.90;;;;;;13051123;22;20166;-89
2022/07/20 20:17:03;;;;;;;13.50;6.50;;;23.00;99.90;;;;;;13051106;22;20210;-89
2022/07/20 20:22:06;;;;;;;11.55;6.45;;;22.80;99.90;;;;;;13049321;22;20177;-89
2022/07/20 20:27:08;;;;;;;7.50;4.93;;;22.70;99.90;;;;;;13050988;22;20234;-90
2022/07/20 20:32:11;;;;;;;11.35;5.95;;;22.70;99.90;;;;;;13051108;22;20214;-89
2022/07/20 20:37:13;;;;;;;17.75;5.78;;;22.70;99.90;;;;;;13077212;22;20250;-89
2022/07/20 20:42:16;;;;;;;6.05;4.70;;;22.60;99.90;;;;;;13115625;22;20168;-89
2022/07/20 20:47:18;;;;;;;10.95;5.85;;;22.50;99.90;;;;;;13087037;22;20192;-89
2022/07/20 20:52:21;;;;;;;5.13;4.28;;;22.50;99.90;;;;;;13089639;22;20626;-89
2022/07/20 20:57:23;;;;;;;5.38;4.53;;;22.70;99.90;;;;;;13090864;22;20180;-89
2022/07/20 21:02:26;;;;;;;4.32;4.03;;;22.80;99.90;;;;;;13119132;22;20164;-89
2022/07/20 21:07:29;;;;;;;4.70;4.30;;;22.80;99.90;;;;;;13119282;22;20233;-89
2022/07/20 21:12:32;;;;;;;6.05;4.97;;;22.90;99.90;;;;;;13090778;22;20235;-89
2022/07/20 21:17:35;;;;;;;4.75;4.35;;;22.80;99.90;;;;;;13118852;22;20541;-89
2022/07/20 21:22:40;;;;;;;4.60;4.20;;;23.00;99.90;;;;;;13092129;22;20160;-89
2022/07/20 21:27:43;;;;;;;3.90;3.60;;;23.10;99.90;;;;;;13118389;22;20237;-89
2022/07/20 21:32:45;;;;;;;5.13;4.63;;;23.10;99.90;;;;;;13091317;22;20161;-89
2022/07/20 21:37:48;;;;;;;6.00;4.55;;;23.00;99.90;;;;;;13091168;22;20581;-89
2022/07/20 21:42:51;;;;;;;5.28;4.78;;;23.10;99.90;;;;;;13118340;22;20168;-89
2022/07/20 21:47:53;;;;;;;4.80;4.35;;;23.10;99.90;;;;;;13118217;22;20238;-89
2022/07/20 21:52:58;;;;;;;7.70;4.47;;;23.10;99.90;;;;;;13090041;22;20517;-89
2022/07/20 21:58:01;;;;;;;4.55;4.15;;;22.80;99.90;;;;;;13117845;22;20168;-89
2022/07/20 22:03:03;;;;;;;5.20;4.32;;;22.90;99.90;;;;;;13063498;22;20634;-89
2022/07/20 22:08:06;;;;;;;4.68;4.28;;;23.00;99.90;;;;;;13117984;22;20499;-89
2022/07/20 22:13:10;;;;;;;4.95;4.45;;;22.80;99.90;;;;;;13117726;22;20191;-89
2022/07/20 22:18:12;;;;;;;4.32;4.00;;;22.90;99.90;;;;;;13117681;22;20474;-89
2022/07/20 22:23:22;;;;;;;4.82;4.35;;;22.90;99.90;;;;;;13110165;22;20511;-89
2022/07/20 22:28:25;;;;;;;4.13;3.72;;;23.00;99.90;;;;;;13090202;22;20563;-89
2022/07/20 22:33:27;;;;;;;4.70;4.30;;;23.00;99.90;;;;;;13064154;22;20172;-89
2022/07/20 22:38:30;;;;;;;4.70;4.32;;;23.00;99.90;;;;;;13088866;22;20515;-89
2022/07/20 22:43:32;;;;;;;5.00;4.55;;;23.00;99.90;;;;;;13117625;22;20210;-89
2022/07/20 22:48:35;;;;;;;4.25;3.85;;;23.00;99.90;;;;;;13117522;22;20185;-89
2022/07/20 22:53:37;;;;;;;4.70;4.30;;;23.00;99.90;;;;;;13117899;22;20509;-89
2022/07/20 22:58:40;;;;;;;4.78;4.28;;;22.90;99.90;;;;;;13117010;22;20169;-89
2022/07/20 23:03:43;;;;;;;4.38;3.97;;;22.90;99.90;;;;;;13108814;22;20161;-89
2022/07/20 23:08:45;;;;;;;4.30;4.00;;;22.90;99.90;;;;;;13089887;22;20184;-89
2022/07/20 23:13:48;;;;;;;4.30;3.90;;;22.90;99.90;;;;;;13062808;22;20211;-89
2022/07/20 23:18:50;;;;;;;5.00;4.50;;;22.90;99.90;;;;;;13116861;22;20165;-89
2022/07/20 23:23:53;;;;;;;4.90;4.47;;;22.90;99.90;;;;;;13108803;22;20218;-89
2022/07/20 23:28:56;;;;;;;4.53;4.13;;;22.90;99.90;;;;;;13116428;22;20565;-89
2022/07/20 23:33:59;;;;;;;4.25;3.95;;;22.90;99.90;;;;;;13062473;22;20222;-89
2022/07/20 23:39:02;;;;;;;4.57;4.18;;;22.90;99.90;;;;;;13116572;22;20217;-89
2022/07/20 23:44:05;;;;;;;5.00;4.03;;;22.80;99.90;;;;;;13088272;22;20180;-89
2022/07/20 23:49:07;;;;;;;4.45;4.05;;;22.90;99.90;;;;;;13116817;22;20185;-89
2022/07/20 23:54:10;;;;;;;4.45;4.05;;;22.80;99.90;;;;;;13133709;22;20214;-89
2022/07/20 23:59:12;;;;;;;4.75;4.35;;;22.80;99.90;;;;;;13116086;22;20221;-89
